Time;durP1;ratioP1;P1;durP2;ratioP2;P2;SDS_P1;SDS_P2;PMS_P1;PMS_P2;Temp;Humidity;BMP_temperature;BMP_pressure;BME280_temperature;BME280_humidity;BME280_pressure;Samples;Min_cycle;Max_cycle;Signal;HPM_P1;HPM_P2
2023/09/12 00:00:53;;;;;;;11.68;6.10;;;19.10;56.60;;;;;;5072760;28;20043;-74
2023/09/12 00:03:24;;;;;;;8.35;5.20;;;19.30;56.40;;;;;;5073512;28;20100;-75
2023/09/12 00:05:56;;;;;;;11.25;5.50;;;19.40;55.80;;;;;;5072924;28;20021;-76
2023/09/12 00:08:23;;;;;;;8.32;6.03;;;19.50;55.40;;;;;;5072787;28;20430;-75
2023/09/12 00:11:06;;;;;;;11.88;7.47;;;19.70;55.30;;;;;;5072658;28;20052;-76
2023/09/12 00:13:33;;;;;;;8.57;5.35;;;19.80;54.80;;;;;;5072537;28;20028;-77
2023/09/12 00:16:02;;;;;;;7.88;4.60;;;19.80;55.00;;;;;;5072672;28;20031;-77
2023/09/12 00:18:29;;;;;;;5.07;3.88;;;20.10;54.20;;;;;;5072312;28;20052;-75
2023/09/12 00:20:59;;;;;;;5.88;3.83;;;20.30;52.80;;;;;;5072351;28;20020;-77
2023/09/12 00:23:27;;;;;;;8.15;4.35;;;20.40;52.90;;;;;;5072538;28;20023;-78
2023/09/12 00:25:54;;;;;;;6.82;4.63;;;20.50;51.90;;;;;;5072405;28;20067;-75
2023/09/12 00:28:22;;;;;;;5.13;3.83;;;20.60;52.30;;;;;;5072459;28;20039;-76
2023/09/12 00:30:49;;;;;;;5.50;4.50;;;20.70;51.50;;;;;;5072725;28;20021;-75
2023/09/12 00:33:17;;;;;;;7.25;4.55;;;20.90;51.20;;;;;;5072580;28;20068;-77
2023/09/12 00:35:45;;;;;;;6.38;3.80;;;21.00;51.00;;;;;;5072580;28;20064;-76
2023/09/12 00:38:12;;;;;;;6.20;4.05;;;21.00;51.40;;;;;;5072631;28;20021;-76
2023/09/12 00:40:39;;;;;;;6.38;4.28;;;20.90;50.50;;;;;;5072944;28;20061;-76
2023/09/12 00:43:07;;;;;;;7.93;4.65;;;21.00;50.70;;;;;;5072488;28;20028;-76
2023/09/12 00:45:34;;;;;;;6.75;4.43;;;21.20;50.20;;;;;;5072822;28;20028;-75
2023/09/12 00:48:04;;;;;;;6.88;4.20;;;21.10;49.70;;;;;;5073783;28;20387;-75
2023/09/12 00:50:33;;;;;;;5.95;4.07;;;21.20;49.70;;;;;;5077907;28;20329;-76
2023/09/12 00:53:01;;;;;;;5.88;4.35;;;21.30;49.30;;;;;;5076437;28;20023;-75
2023/09/12 00:55:32;;;;;;;8.15;4.32;;;21.30;48.40;;;;;;5077486;28;20070;-75
2023/09/12 00:58:01;;;;;;;7.82;4.47;;;21.30;48.20;;;;;;5078447;28;20117;-75
2023/09/12 01:00:28;;;;;;;6.70;4.70;;;21.40;47.90;;;;;;5078395;28;20033;-76
2023/09/12 01:02:56;;;;;;;8.13;5.40;;;21.50;48.00;;;;;;5079953;28;20468;-75
2023/09/12 01:05:24;;;;;;;8.80;5.78;;;21.40;48.50;;;;;;5077713;28;20029;-76
2023/09/12 01:07:53;;;;;;;10.82;6.68;;;21.30;48.50;;;;;;5081212;28;20107;-74
2023/09/12 01:10:20;;;;;;;13.25;7.40;;;21.40;48.50;;;;;;5085028;28;20028;-74
2023/09/12 01:12:47;;;;;;;10.93;7.20;;;21.40;48.50;;;;;;5085168;28;20036;-76
2023/09/12 01:15:15;;;;;;;10.35;7.32;;;21.50;48.10;;;;;;5084465;28;20107;-75
2023/09/12 01:17:46;;;;;;;13.38;7.32;;;21.60;48.80;;;;;;5085208;28;20040;-74
2023/09/12 01:20:24;;;;;;;9.13;6.63;;;21.60;48.50;;;;;;5082054;28;20032;-75
2023/09/12 01:23:17;;;;;;;7.32;6.10;;;21.60;47.80;;;;;;5076227;28;20542;-76
2023/09/12 01:26:08;;;;;;;8.13;6.05;;;21.60;47.70;;;;;;5075990;28;20102;-75
2023/09/12 01:28:38;;;;;;;11.05;6.78;;;21.50;47.70;;;;;;5075585;28;20044;-77
2023/09/12 01:31:06;;;;;;;10.02;6.38;;;21.20;47.20;;;;;;5075391;28;20426;-74
2023/09/12 01:33:33;;;;;;;9.45;6.60;;;21.20;48.30;;;;;;5076370;28;20024;-75
2023/09/12 01:36:01;;;;;;;9.63;6.38;;;21.20;47.80;;;;;;5075567;28;20070;-76
2023/09/12 01:38:29;;;;;;;9.75;6.47;;;21.20;48.50;;;;;;5074407;28;20081;-75
2023/09/12 01:41:06;;;;;;;12.52;6.47;;;21.30;48.30;;;;;;5075485;28;20039;-76
2023/09/12 01:43:35;;;;;;;9.07;6.25;;;21.50;48.10;;;;;;5075356;28;20070;-75
2023/09/12 01:46:03;;;;;;;10.90;5.97;;;21.50;48.20;;;;;;5075461;28;20245;-76
2023/09/12 01:48:34;;;;;;;9.27;6.68;;;21.50;48.20;;;;;;5073390;28;20025;-76
2023/09/12 01:51:03;;;;;;;10.25;5.88;;;21.50;48.50;;;;;;5075230;28;20021;-76
2023/09/12 01:53:33;;;;;;;10.38;6.65;;;21.40;48.60;;;;;;5075378;28;20025;-78
2023/09/12 01:56:01;;;;;;;8.18;6.18;;;21.30;48.50;;;;;;5075072;28;20471;-76
2023/09/12 01:58:30;;;;;;;16.27;6.80;;;21.20;48.60;;;;;;5074570;28;20021;-76
2023/09/12 02:00:58;;;;;;;9.73;6.75;;;21.20;49.20;;;;;;5074789;28;20099;-76
2023/09/12 02:03:26;;;;;;;11.90;7.40;;;21.20;49.00;;;;;;5072733;28;20094;-76
2023/09/12 02:05:53;;;;;;;10.57;6.68;;;21.30;48.60;;;;;;5074829;28;20536;-76
2023/09/12 02:08:20;;;;;;;6.68;5.38;;;21.30;48.30;;;;;;5074615;28;20028;-78
2023/09/12 02:10:48;;;;;;;11.38;7.00;;;21.30;48.90;;;;;;5075166;28;20530;-77
2023/09/12 02:13:15;;;;;;;8.55;6.45;;;21.20;47.90;;;;;;5074831;28;20024;-76
2023/09/12 02:15:42;;;;;;;12.07;6.28;;;21.10;48.30;;;;;;5074829;28;20025;-74
2023/09/12 02:18:10;;;;;;;8.15;6.20;;;21.00;48.60;;;;;;5074900;28;20037;-75
2023/09/12 02:20:41;;;;;;;10.90;6.85;;;21.10;48.90;;;;;;5074906;28;20395;-75
2023/09/12 02:23:08;;;;;;;10.90;6.22;;;21.20;48.30;;;;;;5074486;28;20078;-77
2023/09/12 02:25:35;;;;;;;8.88;5.90;;;21.30;47.70;;;;;;5074818;28;20024;-75
2023/09/12 02:28:03;;;;;;;6.63;5.35;;;21.30;47.90;;;;;;5074269;28;20415;-76
2023/09/12 02:30:30;;;;;;;8.60;6.03;;;21.40;48.10;;;;;;5074526;28;20417;-76
2023/09/12 02:32:58;;;;;;;7.13;5.90;;;21.50;47.90;;;;;;5072877;28;20044;-78
2023/09/12 02:35:28;;;;;;;11.48;6.40;;;21.60;46.90;;;;;;5075239;28;20480;-80
2023/09/12 02:37:55;;;;;;;8.77;5.80;;;21.70;46.60;;;;;;5075766;28;20112;-78
2023/09/12 02:40:22;;;;;;;8.30;5.70;;;21.80;46.70;;;;;;5076003;28;20044;-81
2023/09/12 02:42:50;;;;;;;9.75;5.57;;;21.80;46.20;;;;;;5076063;28;20403;-79
2023/09/12 02:45:17;;;;;;;8.18;5.82;;;21.80;45.90;;;;;;5075192;28;20032;-80
2023/09/12 02:47:46;;;;;;;12.43;8.10;;;21.80;46.50;;;;;;5074314;28;20032;-78
2023/09/12 02:50:13;;;;;;;11.23;8.00;;;21.80;46.20;;;;;;5074359;28;20157;-75
2023/09/12 02:52:43;;;;;;;7.78;5.82;;;21.80;46.30;;;;;;5072953;28;20475;-81
2023/09/12 02:55:11;;;;;;;8.75;6.03;;;21.70;46.90;;;;;;5075156;28;20028;-74
2023/09/12 02:57:38;;;;;;;6.70;5.45;;;21.70;47.20;;;;;;5079753;28;20027;-76
2023/09/12 03:00:08;;;;;;;7.63;4.72;;;21.70;47.00;;;;;;5078736;28;20455;-75
2023/09/12 03:02:35;;;;;;;8.85;5.13;;;21.50;47.60;;;;;;5080257;28;20044;-75
2023/09/12 03:05:02;;;;;;;9.07;5.40;;;21.40;48.10;;;;;;5080591;28;20498;-74
2023/09/12 03:07:31;;;;;;;9.38;5.38;;;21.30;48.40;;;;;;5077015;28;20024;-75
2023/09/12 03:09:58;;;;;;;8.00;5.72;;;21.30;48.70;;;;;;5078593;28;20031;-79
2023/09/12 03:12:27;;;;;;;11.43;5.35;;;21.20;49.10;;;;;;5073292;28;20024;-78
2023/09/12 03:14:54;;;;;;;7.38;4.95;;;21.10;49.30;;;;;;5073674;28;20029;-76
2023/09/12 03:17:22;;;;;;;7.30;4.55;;;21.10;49.50;;;;;;5074016;28;20023;-76
2023/09/12 03:19:49;;;;;;;8.70;4.38;;;21.00;49.90;;;;;;5073264;28;20064;-75
2023/09/12 03:22:16;;;;;;;7.32;4.53;;;21.00;49.90;;;;;;5073534;28;20023;-75
2023/09/12 03:24:45;;;;;;;8.40;5.35;;;21.00;50.00;;;;;;5073517;28;20017;-74
2023/09/12 03:27:12;;;;;;;7.50;5.28;;;20.90;50.00;;;;;;5077413;28;20021;-76
2023/09/12 03:29:40;;;;;;;9.35;4.90;;;20.80;50.10;;;;;;5077390;28;20125;-75
2023/09/12 03:32:10;;;;;;;7.78;4.70;;;20.80;50.30;;;;;;5074189;28;20108;-75
2023/09/12 03:34:37;;;;;;;8.07;4.97;;;20.80;50.50;;;;;;5076204;28;20479;-75
2023/09/12 03:37:05;;;;;;;8.00;4.65;;;20.80;50.60;;;;;;5075396;28;20089;-74
2023/09/12 03:39:36;;;;;;;7.43;4.60;;;20.80;50.50;;;;;;5075296;28;20036;-76
2023/09/12 03:42:04;;;;;;;6.93;5.05;;;20.80;50.40;;;;;;5074560;28;20475;-74
2023/09/12 03:44:31;;;;;;;7.13;4.50;;;20.80;50.80;;;;;;5075741;28;20467;-79
2023/09/12 03:46:58;;;;;;;5.40;4.05;;;20.80;51.10;;;;;;5075796;28;20078;-76
2023/09/12 03:49:28;;;;;;;6.97;4.25;;;20.90;51.00;;;;;;5074077;28;20051;-77
2023/09/12 03:51:55;;;;;;;6.97;4.38;;;20.90;51.00;;;;;;5076285;28;20687;-78
2023/09/12 03:54:23;;;;;;;8.45;4.65;;;20.80;50.90;;;;;;5077103;28;20348;-76
2023/09/12 03:56:50;;;;;;;7.50;4.75;;;20.80;50.90;;;;;;5076208;28;20036;-75
2023/09/12 03:59:17;;;;;;;7.22;5.20;;;20.80;51.00;;;;;;5074330;28;20033;-75
2023/09/12 04:01:45;;;;;;;7.75;5.97;;;20.80;50.70;;;;;;5076097;28;20028;-75
2023/09/12 04:04:12;;;;;;;8.55;4.93;;;20.80;50.60;;;;;;5075085;28;20387;-75
2023/09/12 04:06:40;;;;;;;11.68;5.57;;;20.70;50.70;;;;;;5073639;28;20069;-79
2023/09/12 04:09:08;;;;;;;10.27;6.05;;;20.70;51.00;;;;;;5072661;28;20028;-76
2023/09/12 04:11:35;;;;;;;9.20;5.53;;;20.70;50.90;;;;;;5073737;28;20036;-76
2023/09/12 04:14:02;;;;;;;10.93;6.20;;;20.70;51.10;;;;;;5073542;28;20098;-75
2023/09/12 04:16:31;;;;;;;8.30;5.28;;;20.70;51.00;;;;;;5073212;28;20390;-76
2023/09/12 04:18:58;;;;;;;9.70;5.38;;;20.60;51.00;;;;;;5071465;28;20056;-75
2023/09/12 04:21:25;;;;;;;8.73;5.22;;;20.70;51.20;;;;;;5073704;28;20039;-76
2023/09/12 04:23:53;;;;;;;8.88;5.70;;;20.60;51.30;;;;;;5075949;28;20091;-76
2023/09/12 04:26:20;;;;;;;7.75;5.10;;;20.60;51.40;;;;;;5076544;28;20043;-77
2023/09/12 04:28:51;;;;;;;10.25;5.65;;;20.50;51.50;;;;;;5076928;28;20040;-75
2023/09/12 04:31:18;;;;;;;9.07;6.00;;;20.50;51.60;;;;;;5077321;28;20017;-76
2023/09/12 04:33:45;;;;;;;10.23;5.47;;;20.50;51.90;;;;;;5077249;28;20027;-76
2023/09/12 04:36:13;;;;;;;9.90;5.30;;;20.50;52.10;;;;;;5076305;28;20379;-76
2023/09/12 04:38:40;;;;;;;12.65;6.90;;;20.40;52.30;;;;;;5076506;28;20032;-76
2023/09/12 04:41:08;;;;;;;11.02;5.90;;;20.30;52.50;;;;;;5076198;28;20052;-77
2023/09/12 04:43:35;;;;;;;13.32;6.60;;;20.30;52.80;;;;;;5076483;28;20099;-77
2023/09/12 04:46:03;;;;;;;9.70;6.05;;;20.30;53.10;;;;;;5076334;28;20024;-75
2023/09/12 04:48:31;;;;;;;7.10;5.40;;;20.30;53.20;;;;;;5076088;28;20103;-76
2023/09/12 04:51:01;;;;;;;10.27;6.03;;;20.30;53.20;;;;;;5076044;28;20067;-75
2023/09/12 04:53:34;;;;;;;8.43;6.68;;;20.20;53.50;;;;;;5074908;28;20071;-76
2023/09/12 04:56:03;;;;;;;8.43;7.20;;;20.20;53.50;;;;;;5075976;28;20078;-76
2023/09/12 04:58:30;;;;;;;10.77;6.10;;;20.20;53.80;;;;;;5076019;28;20439;-77
2023/09/12 05:00:57;;;;;;;10.60;6.57;;;20.20;53.90;;;;;;5075797;28;20073;-77
2023/09/12 05:03:25;;;;;;;10.90;6.00;;;20.20;53.90;;;;;;5076127;28;20028;-79
2023/09/12 05:05:54;;;;;;;15.35;7.13;;;20.10;54.00;;;;;;5076110;28;20144;-76
2023/09/12 05:08:21;;;;;;;11.48;6.90;;;20.20;54.30;;;;;;5076187;28;20112;-77
2023/09/12 05:10:49;;;;;;;10.98;6.95;;;20.30;54.50;;;;;;5075762;28;20024;-76
2023/09/12 05:13:17;;;;;;;11.48;7.15;;;20.30;54.60;;;;;;5075684;28;20032;-78
2023/09/12 05:15:50;;;;;;;11.60;7.47;;;20.40;54.70;;;;;;5076147;28;20022;-77
2023/09/12 05:18:17;;;;;;;10.52;7.20;;;20.50;54.80;;;;;;5075950;28;20459;-75
2023/09/12 05:20:44;;;;;;;9.88;7.20;;;20.50;54.70;;;;;;5075846;28;20483;-77
2023/09/12 05:23:12;;;;;;;11.45;7.40;;;20.60;54.70;;;;;;5075556;28;20024;-76
2023/09/12 05:25:39;;;;;;;8.45;6.07;;;20.60;54.50;;;;;;5075530;28;20036;-77
2023/09/12 05:28:07;;;;;;;8.05;6.40;;;20.60;54.30;;;;;;5075132;28;20048;-77
2023/09/12 05:30:35;;;;;;;10.82;7.03;;;20.60;54.20;;;;;;5075517;28;20036;-76
2023/09/12 05:33:02;;;;;;;10.38;6.35;;;20.50;54.10;;;;;;5074971;28;20110;-77
2023/09/12 05:35:30;;;;;;;10.88;6.85;;;20.60;54.20;;;;;;5075066;28;20024;-76
2023/09/12 05:37:57;;;;;;;8.95;6.18;;;20.50;54.00;;;;;;5074018;28;20119;-77
2023/09/12 05:40:25;;;;;;;12.82;6.38;;;20.50;54.00;;;;;;5073901;28;20036;-76
2023/09/12 05:42:52;;;;;;;10.32;6.07;;;20.50;54.10;;;;;;5075212;28;20107;-77
2023/09/12 05:45:21;;;;;;;9.95;6.40;;;20.50;54.10;;;;;;5075013;28;20032;-78
2023/09/12 05:47:50;;;;;;;9.77;6.10;;;20.40;54.20;;;;;;5075355;28;20020;-79
2023/09/12 05:50:17;;;;;;;8.25;6.03;;;20.40;54.30;;;;;;5075239;28;20028;-76
2023/09/12 05:52:45;;;;;;;11.35;6.32;;;20.40;54.40;;;;;;5075141;28;20035;-76
2023/09/12 05:55:12;;;;;;;8.50;5.80;;;20.40;54.60;;;;;;5073728;28;20032;-76
2023/09/12 05:57:40;;;;;;;11.18;6.55;;;20.40;54.50;;;;;;5075022;28;20028;-77
2023/09/12 06:00:11;;;;;;;7.18;5.53;;;20.30;54.60;;;;;;5074859;28;20479;-77
2023/09/12 06:02:42;;;;;;;13.93;7.00;;;20.30;55.10;;;;;;5074909;28;20025;-77
2023/09/12 06:05:10;;;;;;;17.02;7.22;;;20.30;55.30;;;;;;5074695;28;20024;-78
2023/09/12 06:07:39;;;;;;;21.52;7.22;;;20.20;55.50;;;;;;5074512;28;20099;-77
2023/09/12 06:10:07;;;;;;;14.02;6.60;;;20.20;55.60;;;;;;5074664;28;20031;-77
2023/09/12 06:12:36;;;;;;;13.65;6.78;;;20.10;55.90;;;;;;5074642;28;20491;-75
2023/09/12 06:15:04;;;;;;;13.90;5.90;;;20.00;56.00;;;;;;5074436;28;20071;-75
2023/09/12 06:17:32;;;;;;;10.38;6.30;;;20.00;56.00;;;;;;5074638;28;20378;-80
2023/09/12 06:19:59;;;;;;;18.98;6.55;;;20.00;56.10;;;;;;5074682;28;20044;-75
2023/09/12 06:22:28;;;;;;;11.35;6.47;;;20.00;56.20;;;;;;5074418;28;20016;-84
2023/09/12 06:24:55;;;;;;;9.13;6.40;;;20.00;56.30;;;;;;5074640;28;20028;-82
2023/09/12 06:27:23;;;;;;;9.30;5.82;;;19.90;56.20;;;;;;5074329;28;20029;-84
2023/09/12 06:29:50;;;;;;;9.45;5.50;;;19.80;56.40;;;;;;5074701;28;20036;-81
2023/09/12 06:32:20;;;;;;;9.18;6.28;;;19.70;56.50;;;;;;5074860;28;20029;-79
2023/09/12 06:34:48;;;;;;;7.25;6.05;;;19.70;56.70;;;;;;5074509;28;20032;-79
2023/09/12 06:37:15;;;;;;;7.45;5.70;;;19.70;56.90;;;;;;5074218;28;20032;-80
2023/09/12 06:39:43;;;;;;;9.90;5.57;;;19.70;57.20;;;;;;5074386;28;20089;-80
2023/09/12 06:42:10;;;;;;;7.10;6.13;;;19.60;57.10;;;;;;5074188;28;20098;-76
2023/09/12 06:44:38;;;;;;;7.88;5.57;;;19.60;57.20;;;;;;5074180;28;20028;-80
2023/09/12 06:47:06;;;;;;;10.63;6.75;;;19.50;57.40;;;;;;5073659;28;20044;-79
2023/09/12 06:49:35;;;;;;;7.88;5.90;;;19.50;57.40;;;;;;5074395;28;20020;-76
2023/09/12 06:52:03;;;;;;;11.00;6.28;;;19.40;57.70;;;;;;5074378;28;20372;-82
2023/09/12 06:54:34;;;;;;;7.05;5.75;;;19.30;58.00;;;;;;5074396;28;20490;-84
2023/09/12 06:57:02;;;;;;;8.80;5.78;;;19.30;57.90;;;;;;5074026;28;20082;-84
2023/09/12 06:59:30;;;;;;;8.82;5.63;;;19.20;57.80;;;;;;5073689;28;20026;-80
2023/09/12 07:01:57;;;;;;;7.97;6.03;;;19.10;57.80;;;;;;5073789;28;20036;-82
2023/09/12 07:04:25;;;;;;;7.10;5.88;;;19.10;58.00;;;;;;5074133;28;20101;-85
2023/09/12 07:06:52;;;;;;;6.53;4.82;;;19.00;58.20;;;;;;5073847;28;20024;-78
2023/09/12 07:09:20;;;;;;;10.50;6.28;;;18.90;58.40;;;;;;5074907;28;20375;-78
2023/09/12 07:11:49;;;;;;;8.82;6.05;;;18.80;59.00;;;;;;5073564;28;20108;-79
2023/09/12 07:14:17;;;;;;;9.18;5.60;;;18.80;59.10;;;;;;5073672;28;20448;-79
2023/09/12 07:16:44;;;;;;;7.65;6.50;;;18.80;59.40;;;;;;5073468;28;20047;-77
2023/09/12 07:19:12;;;;;;;11.77;5.85;;;18.80;59.80;;;;;;5073220;28;20068;-77
2023/09/12 07:21:39;;;;;;;5.90;4.88;;;18.80;59.70;;;;;;5073483;28;20020;-76
2023/09/12 07:24:07;;;;;;;8.18;5.85;;;18.70;59.80;;;;;;5074171;28;20024;-75
2023/09/12 07:26:34;;;;;;;6.72;5.55;;;18.70;60.20;;;;;;5073629;28;20021;-77
2023/09/12 07:29:05;;;;;;;13.55;6.43;;;18.70;60.10;;;;;;5074271;28;20046;-82
2023/09/12 07:31:32;;;;;;;7.43;5.68;;;18.60;60.50;;;;;;5073803;28;20029;-77
2023/09/12 07:34:00;;;;;;;9.45;6.40;;;18.50;60.40;;;;;;5073386;28;20044;-80
2023/09/12 07:36:27;;;;;;;9.00;6.22;;;18.50;60.70;;;;;;5073006;28;20112;-76
2023/09/12 07:38:54;;;;;;;6.90;5.65;;;18.50;60.90;;;;;;5072760;28;20127;-75
2023/09/12 07:41:25;;;;;;;11.20;6.50;;;18.40;61.00;;;;;;5073487;28;20097;-81
2023/09/12 07:43:52;;;;;;;11.48;6.82;;;18.40;61.20;;;;;;5073377;28;20070;-85
2023/09/12 07:46:21;;;;;;;6.95;5.60;;;18.30;61.20;;;;;;5074338;28;20028;-80
2023/09/12 07:48:49;;;;;;;9.80;6.40;;;18.30;61.40;;;;;;5073498;28;20100;-77
2023/09/12 07:51:18;;;;;;;8.98;6.10;;;18.30;61.50;;;;;;5072823;28;20070;-82
2023/09/12 07:53:45;;;;;;;10.85;6.10;;;18.30;61.60;;;;;;5071965;28;20407;-75
2023/09/12 07:56:13;;;;;;;9.32;6.32;;;18.20;61.80;;;;;;5071596;28;20096;-79
2023/09/12 07:58:40;;;;;;;8.48;6.45;;;18.20;61.90;;;;;;5073818;28;20470;-80
2023/09/12 08:01:09;;;;;;;12.90;6.10;;;18.10;62.10;;;;;;5077200;28;20032;-79
2023/09/12 08:03:39;;;;;;;11.15;6.35;;;18.00;62.30;;;;;;5077405;28;20102;-78
2023/09/12 08:06:07;;;;;;;10.30;6.43;;;18.00;62.50;;;;;;5075302;28;20043;-77
2023/09/12 08:08:34;;;;;;;10.43;6.15;;;18.00;62.60;;;;;;5067997;28;20024;-80
2023/09/12 08:11:02;;;;;;;9.75;5.95;;;18.00;62.50;;;;;;5070737;28;20355;-78
2023/09/12 08:13:30;;;;;;;11.15;5.80;;;18.00;62.40;;;;;;5078425;28;20052;-80
2023/09/12 08:15:58;;;;;;;7.72;5.38;;;17.90;62.30;;;;;;5086475;28;20514;-79
2023/09/12 08:18:33;;;;;;;10.57;6.00;;;17.90;62.50;;;;;;5083029;28;20029;-81
2023/09/12 08:21:00;;;;;;;7.32;5.57;;;17.90;62.60;;;;;;5079260;28;20024;-79
2023/09/12 08:23:28;;;;;;;9.10;5.28;;;17.80;62.60;;;;;;5072313;28;20033;-76
2023/09/12 08:25:55;;;;;;;6.90;5.03;;;17.80;62.70;;;;;;5072197;28;20025;-75
2023/09/12 08:28:22;;;;;;;12.13;5.93;;;17.80;62.80;;;;;;5073340;28;20445;-76
2023/09/12 08:30:50;;;;;;;6.72;5.28;;;17.80;62.80;;;;;;5074236;28;20116;-78
2023/09/12 08:33:17;;;;;;;8.07;5.72;;;17.80;62.90;;;;;;5081852;28;20028;-76
2023/09/12 08:35:45;;;;;;;6.70;4.70;;;17.70;63.10;;;;;;5073830;28;20025;-77
2023/09/12 08:38:13;;;;;;;6.18;4.75;;;17.70;63.20;;;;;;5070786;28;20024;-76
2023/09/12 08:40:40;;;;;;;6.80;5.07;;;17.70;63.30;;;;;;5080268;28;20029;-75
2023/09/12 08:43:10;;;;;;;9.77;6.03;;;17.60;63.40;;;;;;5070870;28;20422;-79
2023/09/12 08:45:39;;;;;;;9.48;5.25;;;17.60;63.50;;;;;;5072023;28;20021;-80
2023/09/12 08:48:07;;;;;;;7.72;6.10;;;17.60;63.60;;;;;;5072150;28;20024;-77
2023/09/12 08:50:35;;;;;;;9.48;5.47;;;17.50;63.70;;;;;;5072676;28;20074;-75
2023/09/12 08:53:05;;;;;;;6.47;5.00;;;17.50;63.80;;;;;;5072188;28;20030;-76
2023/09/12 08:55:35;;;;;;;8.55;5.40;;;17.50;63.90;;;;;;5072347;28;20019;-77
2023/09/12 08:58:04;;;;;;;10.13;5.25;;;17.50;64.10;;;;;;5072581;28;20085;-76
2023/09/12 09:00:32;;;;;;;10.48;4.75;;;17.50;64.40;;;;;;5072247;28;20033;-76
2023/09/12 09:03:00;;;;;;;8.38;5.25;;;17.50;64.50;;;;;;5072117;28;20016;-76
2023/09/12 09:05:29;;;;;;;7.55;4.63;;;17.50;64.60;;;;;;5072433;28;20024;-76
2023/09/12 09:07:57;;;;;;;8.75;5.40;;;17.50;64.50;;;;;;5072425;28;20032;-75
2023/09/12 09:10:26;;;;;;;9.85;6.00;;;17.50;64.60;;;;;;5074325;28;20051;-76
2023/09/12 09:12:53;;;;;;;9.15;6.05;;;17.40;64.70;;;;;;5074765;28;20028;-76
2023/09/12 09:15:32;;;;;;;9.52;6.07;;;17.30;64.90;;;;;;5076339;28;20028;-75
2023/09/12 09:18:03;;;;;;;8.35;5.65;;;17.30;65.10;;;;;;5074382;28;20108;-75
2023/09/12 09:20:37;;;;;;;8.10;6.00;;;17.30;65.10;;;;;;5075659;28;20124;-76
2023/09/12 09:23:06;;;;;;;8.20;5.50;;;17.20;65.40;;;;;;5075537;28;20349;-77
2023/09/12 09:25:34;;;;;;;7.75;5.43;;;17.20;65.30;;;;;;5075540;28;20027;-76
2023/09/12 09:28:05;;;;;;;9.98;5.72;;;17.20;65.50;;;;;;5075230;28;20085;-78
2023/09/12 09:30:47;;;;;;;12.25;7.03;;;17.20;65.70;;;;;;5075288;28;20021;-75
2023/09/12 09:33:16;;;;;;;7.35;5.75;;;17.10;65.80;;;;;;5075174;28;20540;-75
2023/09/12 09:35:49;;;;;;;10.95;5.88;;;17.10;66.00;;;;;;5072907;28;20024;-79
2023/09/12 09:38:18;;;;;;;12.63;5.80;;;17.10;66.10;;;;;;5074879;28;20028;-78
2023/09/12 09:40:46;;;;;;;9.98;6.10;;;17.10;66.30;;;;;;5080811;28;20051;-76
2023/09/12 09:43:19;;;;;;;11.60;6.00;;;17.00;66.40;;;;;;5086375;28;20044;-77
2023/09/12 09:45:49;;;;;;;12.85;6.82;;;17.00;66.60;;;;;;5074621;28;20048;-76
2023/09/12 09:48:26;;;;;;;14.18;6.47;;;17.00;66.70;;;;;;5074374;28;20017;-76
2023/09/12 09:51:04;;;;;;;13.48;6.45;;;16.90;67.00;;;;;;5074917;28;20082;-78
2023/09/12 09:53:33;;;;;;;10.35;6.80;;;16.90;67.00;;;;;;5075162;28;20048;-76
2023/09/12 09:56:14;;;;;;;11.52;6.13;;;16.90;67.10;;;;;;5073898;28;20134;-75
2023/09/12 09:58:48;;;;;;;11.07;6.70;;;16.90;67.30;;;;;;5074255;28;20467;-76
2023/09/12 10:01:22;;;;;;;9.60;5.97;;;16.80;67.30;;;;;;5074799;28;20039;-76
2023/09/12 10:03:51;;;;;;;9.43;6.00;;;16.80;67.50;;;;;;5075045;28;20021;-76
2023/09/12 10:06:20;;;;;;;8.18;6.13;;;16.80;67.60;;;;;;5075449;28;20045;-76
2023/09/12 10:08:53;;;;;;;9.13;5.93;;;16.80;67.80;;;;;;5075161;28;20028;-75
2023/09/12 10:11:28;;;;;;;10.07;6.40;;;16.80;67.90;;;;;;5075331;28;20016;-77
2023/09/12 10:14:03;;;;;;;11.98;8.45;;;16.80;67.90;;;;;;5075427;28;20415;-76
2023/09/12 10:16:35;;;;;;;12.23;7.55;;;16.80;68.10;;;;;;5074866;28;20032;-76
2023/09/12 10:19:10;;;;;;;13.32;6.88;;;16.70;68.30;;;;;;5074404;28;20394;-80
2023/09/12 10:21:42;;;;;;;10.18;6.38;;;16.70;68.40;;;;;;5074490;28;20036;-75
2023/09/12 10:24:10;;;;;;;8.10;6.00;;;16.70;68.50;;;;;;5094324;28;20028;-76
2023/09/12 10:26:43;;;;;;;14.75;6.72;;;16.70;68.50;;;;;;5094369;28;20059;-77
2023/09/12 10:29:15;;;;;;;10.45;5.90;;;16.70;68.60;;;;;;5084458;28;20087;-86
2023/09/12 10:31:42;;;;;;;13.50;5.95;;;16.70;68.90;;;;;;5068869;28;20047;-74
2023/09/12 10:34:13;;;;;;;12.27;5.90;;;16.60;68.90;;;;;;5068225;28;20021;-80
2023/09/12 10:36:42;;;;;;;7.60;6.00;;;16.60;69.10;;;;;;5068722;28;20627;-76
2023/09/12 10:39:11;;;;;;;8.88;5.85;;;16.50;69.10;;;;;;5066074;28;20179;-75
2023/09/12 10:41:40;;;;;;;9.70;5.53;;;16.60;69.10;;;;;;5068238;28;21752;-77
2023/09/12 10:44:17;;;;;;;11.45;6.45;;;16.50;69.20;;;;;;5068107;28;20031;-82
2023/09/12 10:46:46;;;;;;;8.57;5.60;;;16.50;69.30;;;;;;5068283;28;20020;-77
2023/09/12 10:49:16;;;;;;;10.80;6.32;;;16.50;69.50;;;;;;5067083;28;20069;-78
2023/09/12 10:51:47;;;;;;;11.18;7.10;;;16.60;69.50;;;;;;5068124;28;20517;-82
2023/09/12 10:54:23;;;;;;;11.93;7.50;;;16.60;69.50;;;;;;5068545;28;20508;-79
2023/09/12 10:57:07;;;;;;;15.40;7.70;;;16.50;69.60;;;;;;5068756;28;20028;-77
2023/09/12 10:59:38;;;;;;;12.98;7.15;;;16.50;69.70;;;;;;5066903;28;20043;-81
2023/09/12 11:02:43;;;;;;;12.25;6.72;;;16.50;69.90;;;;;;5068393;28;20099;-76
2023/09/12 11:05:33;;;;;;;12.63;6.45;;;16.40;70.00;;;;;;5068467;28;20503;-83
2023/09/12 11:08:04;;;;;;;9.50;6.70;;;16.30;70.00;;;;;;5068681;28;20462;-83
2023/09/12 11:10:32;;;;;;;9.48;6.95;;;16.30;70.10;;;;;;5066840;28;20686;-80
2023/09/12 11:13:00;;;;;;;10.43;6.47;;;16.30;70.40;;;;;;5068294;28;20082;-80
2023/09/12 11:15:31;;;;;;;9.55;7.13;;;16.30;70.40;;;;;;5067985;28;20044;-77
2023/09/12 11:18:01;;;;;;;13.35;7.45;;;16.30;70.60;;;;;;5067711;28;20078;-82
2023/09/12 11:20:52;;;;;;;8.10;6.07;;;16.20;70.60;;;;;;5066301;28;20120;-83
2023/09/12 11:23:20;;;;;;;13.77;7.45;;;16.20;70.80;;;;;;5067469;28;20031;-84
2023/09/12 11:25:48;;;;;;;18.60;8.48;;;16.20;71.00;;;;;;5067882;28;20487;-83
2023/09/12 11:28:16;;;;;;;16.42;8.15;;;16.10;70.90;;;;;;5067997;28;20106;-83
2023/09/12 11:31:00;;;;;;;15.90;8.18;;;16.10;71.10;;;;;;5066234;28;20036;-81
2023/09/12 11:33:27;;;;;;;17.77;7.88;;;16.00;71.10;;;;;;5067635;28;20109;-82
2023/09/12 11:35:57;;;;;;;15.95;7.50;;;16.00;71.30;;;;;;5067797;28;20031;-82
2023/09/12 11:38:29;;;;;;;16.88;8.80;;;15.90;71.40;;;;;;5067509;28;20078;-79
2023/09/12 11:40:57;;;;;;;10.32;7.53;;;15.90;71.60;;;;;;5066666;28;20036;-85
2023/09/12 11:43:27;;;;;;;15.73;8.50;;;15.90;71.70;;;;;;5067657;28;20036;-85
2023/09/12 11:45:56;;;;;;;15.63;7.95;;;15.90;71.60;;;;;;5067020;28;20635;-86
2023/09/12 11:48:24;;;;;;;12.43;7.28;;;15.90;71.70;;;;;;5067384;28;20035;-82
2023/09/12 11:50:56;;;;;;;12.35;7.63;;;15.80;71.80;;;;;;5066333;28;20078;-85
2023/09/12 11:53:26;;;;;;;12.77;8.18;;;15.80;71.80;;;;;;5066710;28;20426;-84
2023/09/12 11:56:00;;;;;;;11.93;7.95;;;15.80;71.80;;;;;;5067597;28;20533;-80
2023/09/12 11:58:28;;;;;;;12.18;8.43;;;15.80;71.90;;;;;;5066336;28;20565;-85
2023/09/12 12:00:58;;;;;;;13.45;7.75;;;15.80;72.00;;;;;;5065130;28;20036;-80
2023/09/12 12:03:28;;;;;;;15.50;8.95;;;15.80;72.00;;;;;;5067580;28;20128;-78
2023/09/12 12:05:56;;;;;;;12.57;7.78;;;15.70;72.10;;;;;;5067991;28;20674;-84
2023/09/12 12:08:23;;;;;;;14.13;7.88;;;15.70;72.20;;;;;;5067278;28;20021;-83
2023/09/12 12:10:54;;;;;;;12.23;7.55;;;15.70;72.30;;;;;;5066054;28;20804;-80
2023/09/12 12:13:22;;;;;;;13.48;7.60;;;15.60;72.50;;;;;;5067471;28;20031;-83
2023/09/12 12:15:50;;;;;;;14.70;7.28;;;15.60;72.40;;;;;;5067126;28;20502;-78
2023/09/12 12:18:17;;;;;;;13.02;7.03;;;15.60;72.50;;;;;;5067231;28;20033;-84
2023/09/12 12:20:45;;;;;;;11.50;6.70;;;15.50;72.70;;;;;;5065631;28;20119;-80
2023/09/12 12:23:12;;;;;;;13.02;7.43;;;15.50;72.80;;;;;;5066792;28;20031;-81
2023/09/12 12:25:40;;;;;;;13.10;7.60;;;15.50;72.90;;;;;;5067002;28;20020;-74
2023/09/12 12:28:07;;;;;;;11.65;7.95;;;15.50;73.10;;;;;;5067333;28;20028;-86
2023/09/12 12:30:37;;;;;;;15.20;7.25;;;15.50;73.00;;;;;;5065784;28;20588;-84
2023/09/12 12:33:11;;;;;;;12.98;7.78;;;15.50;73.00;;;;;;5067042;28;20033;-83
2023/09/12 12:35:38;;;;;;;13.68;7.90;;;15.40;73.10;;;;;;5067059;28;20483;-80
2023/09/12 12:38:07;;;;;;;12.90;8.20;;;15.30;73.20;;;;;;5064965;28;20403;-82
2023/09/12 12:40:40;;;;;;;15.52;9.05;;;15.30;73.40;;;;;;5065536;28;20028;-82
2023/09/12 12:43:19;;;;;;;13.10;8.38;;;15.30;73.50;;;;;;5066466;28;20101;-79
2023/09/12 12:46:00;;;;;;;11.48;7.78;;;15.30;73.70;;;;;;5071240;28;20067;-84
2023/09/12 12:48:33;;;;;;;14.73;8.95;;;15.30;73.70;;;;;;5069184;28;20043;-81
2023/09/12 12:51:12;;;;;;;15.10;8.60;;;15.30;73.80;;;;;;5070215;28;20360;-84
2023/09/12 12:53:42;;;;;;;12.82;8.52;;;15.30;73.80;;;;;;5070719;28;20368;-84